Time;durP1;ratioP1;P1;durP2;ratioP2;P2;SDS_P1;SDS_P2;PMS_P1;PMS_P2;Temp;Humidity;BMP_temperature;BMP_pressure;BME280_temperature;BME280_humidity;BME280_pressure;Samples;Min_cycle;Max_cycle;Signal;HPM_P1;HPM_P2
2023/06/02 00:00:13;;;;;;;;;;;;;;;;;;;;;
2023/06/02 00:02:41;;;;;;;18.67;3.80;;;9.60;69.20;;;;;;6039601;23;20031;-91
2023/06/02 00:05:36;;;;;;;;;;;;;;;;;;;;;
2023/06/02 00:08:18;;;;;;;20.63;4.20;;;9.60;69.20;;;;;;6072433;23;20058;-92
2023/06/02 00:17:14;;;;;;;20.53;4.20;;;9.60;69.40;;;;;;6158940;23;20021;-90
2023/06/02 00:26:58;;;;;;;13.47;3.77;;;9.60;69.30;;;;;;6045614;23;20031;-92
2023/06/02 00:29:58;;;;;;;18.47;4.47;;;9.60;69.30;;;;;;6005474;23;20102;-90
2023/06/02 00:33:06;;;;;;;18.27;4.03;;;9.60;69.20;;;;;;5912750;24;20024;-93
2023/06/02 00:35:35;;;;;;;24.17;4.20;;;9.60;69.20;;;;;;5946289;24;20043;-93
2023/06/02 00:39:01;;;;;;;23.10;4.37;;;9.50;69.30;;;;;;5911852;24;20372;-93
2023/06/02 00:42:28;;;;;;;20.63;4.20;;;9.50;69.10;;;;;;5911979;24;20024;-94
2023/06/02 00:45:04;;;;;;;20.47;4.10;;;9.50;69.10;;;;;;5913576;23;20099;-91
2023/06/02 00:48:22;;;;;;;14.53;4.03;;;9.50;69.20;;;;;;5903320;23;20027;-92
2023/06/02 00:51:02;;;;;;;19.93;4.50;;;9.50;69.30;;;;;;5911239;24;20536;-92
2023/06/02 00:58:13;;;;;;;16.97;4.40;;;9.40;69.60;;;;;;5905624;24;20061;-93
2023/06/02 01:07:58;;;;;;;21.03;4.50;;;9.40;69.90;;;;;;5905593;24;20043;-91
2023/06/02 01:11:18;;;;;;;23.33;4.07;;;9.40;70.30;;;;;;5924292;24;20024;-91
2023/06/02 01:13:59;;;;;;;27.80;4.47;;;9.40;70.40;;;;;;5902344;24;20037;-90
2023/06/02 01:17:17;;;;;;;19.90;4.40;;;9.40;70.30;;;;;;5870960;24;20768;-93
2023/06/02 01:20:25;;;;;;;24.00;5.13;;;9.40;70.40;;;;;;5855566;24;20033;-92
2023/06/02 01:23:31;;;;;;;20.97;4.00;;;9.40;70.50;;;;;;5919512;24;20028;-91
2023/06/02 01:26:35;;;;;;;17.03;4.20;;;9.40;70.50;;;;;;5966479;23;20056;-92
2023/06/02 01:29:38;;;;;;;;;;;;;;;;;;;;;
2023/06/02 01:33:29;;;;;;;22.43;4.07;;;9.40;70.60;;;;;;6075293;23;20037;-92
2023/06/02 01:36:27;;;;;;;;;;;;;;;;;;;;;
2023/06/02 01:47:28;;;;;;;21.67;4.63;;;9.30;71.20;;;;;;5914468;23;20020;-92
2023/06/02 01:50:00;;;;;;;19.88;4.45;;;9.30;71.40;;;;;;5856926;24;20533;-92
2023/06/02 01:53:31;;;;;;;;;;;;;;;;;;;;;
2023/06/02 01:57:24;;;;;;;25.80;4.77;;;9.40;71.50;;;;;;5864815;24;20555;-95
2023/06/02 02:07:11;;;;;;;24.33;4.67;;;9.40;71.80;;;;;;5794263;24;20014;-92
2023/06/02 02:18:15;;;;;;;21.30;4.40;;;9.40;71.90;;;;;;6000494;23;20015;-92
2023/06/02 02:21:19;;;;;;;18.10;4.30;;;9.40;72.00;;;;;;5929148;24;20028;-94
2023/06/02 02:28:14;;;;;;;25.15;3.65;;;9.50;72.10;;;;;;6075958;23;20037;-90
2023/06/02 02:30:53;;;;;;;27.50;4.47;;;9.50;72.20;;;;;;6042604;23;20086;-91
2023/06/02 02:38:31;;;;;;;;;;;;;;;;;;;;;
2023/06/02 02:40:56;;;;;;;25.10;4.60;;;9.40;72.30;;;;;;6038742;23;20157;-92
2023/06/02 02:43:40;;;;;;;26.97;5.30;;;9.50;72.20;;;;;;6066250;23;20452;-92
2023/06/02 02:46:30;;;;;;;21.03;4.70;;;9.50;72.20;;;;;;6023961;23;20032;-94
2023/06/02 02:49:35;;;;;;;29.43;5.70;;;9.50;72.50;;;;;;6016743;23;20026;-95
2023/06/02 02:52:20;;;;;;;23.63;4.63;;;9.50;72.70;;;;;;6061310;23;20031;-91
2023/06/02 02:59:31;;;;;;;25.43;5.17;;;9.50;72.80;;;;;;6165249;23;20021;-92
2023/06/02 03:02:54;;;;;;;;;;;;;;;;;;;;;
2023/06/02 03:06:31;;;;;;;27.30;5.03;;;9.60;72.90;;;;;;6031159;23;20443;-92
2023/06/02 03:09:16;;;;;;;27.17;5.30;;;9.60;73.20;;;;;;6067494;23;20057;-92
2023/06/02 03:12:05;;;;;;;27.90;5.30;;;9.60;72.70;;;;;;6127195;23;20017;-91
2023/06/02 03:14:36;;;;;;;26.00;4.87;;;9.60;72.80;;;;;;6100990;23;20347;-91
2023/06/02 03:22:06;;;;;;;;;;;;;;;;;;;;;
2023/06/02 03:32:47;;;;;;;26.77;5.07;;;9.70;73.10;;;;;;5967497;23;20026;-93
2023/06/02 03:39:21;;;;;;;22.70;4.70;;;9.80;73.40;;;;;;5921532;24;20016;-93
2023/06/02 04:00:17;;;;;;;30.37;5.60;;;9.80;73.40;;;;;;4985020;27;1827965;-93
2023/06/02 04:03:58;;;;;;;29.40;5.50;;;9.90;73.50;;;;;;4841112;29;20057;-93
2023/06/02 04:06:25;;;;;;;21.93;5.10;;;10.00;73.60;;;;;;4879938;28;20518;-95
2023/06/02 04:08:56;;;;;;;18.47;4.33;;;10.00;73.20;;;;;;4995722;28;20519;-92
2023/06/02 04:11:26;;;;;;;24.37;4.63;;;10.00;73.20;;;;;;4986323;28;20054;-91
2023/06/02 04:13:55;;;;;;;22.53;4.97;;;10.00;73.30;;;;;;4932917;28;20054;-93
2023/06/02 04:16:54;;;;;;;;;;;;;;;;;;;;;
2023/06/02 04:19:29;;;;;;;22.57;4.97;;;10.00;73.50;;;;;;4971257;28;20046;-91
2023/06/02 04:21:57;;;;;;;22.53;4.73;;;10.00;73.40;;;;;;4951924;28;20136;-92
2023/06/02 04:24:23;;;;;;;23.73;5.40;;;10.10;73.40;;;;;;4936241;28;20042;-91
2023/06/02 04:27:00;;;;;;;31.93;5.30;;;10.10;73.50;;;;;;4982611;28;20082;-95
2023/06/02 04:30:45;;;;;;;24.23;4.87;;;10.10;73.60;;;;;;4960326;28;20125;-92
2023/06/02 04:33:12;;;;;;;27.67;5.33;;;10.10;73.70;;;;;;4993314;28;20046;-92
2023/06/02 04:36:07;;;;;;;23.13;5.40;;;10.20;73.70;;;;;;4986187;28;20129;-93
2023/06/02 04:38:51;;;;;;;;;;;10.20;73.70;;;;;;5010541;28;20052;-92
2023/06/02 04:41:36;;;;;;;26.80;5.07;;;10.20;73.90;;;;;;5011294;28;19925;-93
2023/06/02 04:44:12;;;;;;;25.67;5.77;;;10.20;73.60;;;;;;5005016;28;20072;-93
2023/06/02 04:46:59;;;;;;;23.47;5.37;;;10.20;73.60;;;;;;5002028;28;20660;-93
2023/06/02 04:49:24;;;;;;;22.00;5.37;;;10.30;73.80;;;;;;5027566;28;20045;-91
2023/06/02 04:54:48;;;;;;;27.40;5.47;;;10.40;73.80;;;;;;4972211;28;20049;-91
2023/06/02 04:57:59;;;;;;;;;;;;;;;;;;;;;
2023/06/02 05:00:46;;;;;;;21.00;4.50;;;10.40;73.90;;;;;;4990230;28;20049;-93
2023/06/02 05:06:50;;;;;;;22.73;5.33;;;10.40;74.10;;;;;;4941332;29;20071;-91
2023/06/02 05:09:33;;;;;;;32.93;6.47;;;10.50;74.10;;;;;;4942423;28;20054;-93
2023/06/02 05:12:18;;;;;;;36.60;6.20;;;10.50;74.10;;;;;;5026345;28;20057;-93
2023/06/02 05:14:50;;;;;;;33.10;6.20;;;10.60;74.30;;;;;;5010170;28;20060;-92
2023/06/02 05:21:36;;;;;;;28.67;5.83;;;10.60;74.40;;;;;;4882091;29;20081;-93
2023/06/02 05:24:33;;;;;;;22.98;6.35;;;10.70;74.20;;;;;;4920428;29;20049;-94
2023/06/02 05:27:37;;;;;;;20.67;6.10;;;10.70;74.50;;;;;;4969269;28;20061;-92
2023/06/02 05:30:22;;;;;;;;;;;;;;;;;;;;;
2023/06/02 05:37:32;;;;;;;25.90;6.47;;;10.90;74.70;;;;;;5037230;28;20050;-92
2023/06/02 05:40:36;;;;;;;28.40;6.57;;;10.90;74.40;;;;;;4988699;28;20053;-92
2023/06/02 05:46:46;;;;;;;35.28;8.07;;;11.10;74.70;;;;;;4981624;28;20659;-91
2023/06/02 05:49:14;;;;;;;37.07;7.77;;;11.10;74.50;;;;;;5025461;28;20108;-93
2023/06/02 05:51:55;;;;;;;;;;;;;;;;;;;;;
2023/06/02 05:55:41;;;;;;;32.80;7.40;;;11.20;74.60;;;;;;5022090;28;20492;-92
2023/06/02 05:58:11;;;;;;;25.27;6.93;;;11.30;75.10;;;;;;4960557;28;20515;-91
2023/06/02 06:00:38;;;;;;;32.90;6.68;;;11.40;74.70;;;;;;5001931;28;20550;-91
2023/06/02 06:03:07;;;;;;;31.70;6.70;;;11.50;74.80;;;;;;4988935;28;20535;-94
2023/06/02 06:05:56;;;;;;;38.40;8.05;;;11.50;74.80;;;;;;5002708;28;20046;-94
2023/06/02 06:08:27;;;;;;;35.53;6.40;;;11.70;75.00;;;;;;5025422;28;20446;-91
2023/06/02 06:11:15;;;;;;;31.67;7.05;;;11.70;74.80;;;;;;4998003;28;20040;-92
2023/06/02 06:13:43;;;;;;;32.05;6.88;;;11.80;75.00;;;;;;5021917;28;20049;-92
2023/06/02 06:16:09;;;;;;;28.05;7.00;;;11.90;74.90;;;;;;5003179;28;20661;-93
2023/06/02 06:18:47;;;;;;;30.33;6.95;;;11.90;75.00;;;;;;4972651;28;20241;-92
2023/06/02 06:21:23;;;;;;;;;;;;;;;;;;;;;
2023/06/02 06:23:58;;;;;;;31.52;6.68;;;12.00;74.80;;;;;;4962478;28;20054;-92
2023/06/02 06:26:27;;;;;;;36.38;7.32;;;12.10;74.70;;;;;;4972434;28;20129;-93
2023/06/02 06:35:54;;;;;;;32.85;6.18;;;12.20;74.70;;;;;;4956320;28;20138;-91
2023/06/02 06:42:12;;;;;;;26.20;6.07;;;12.20;75.00;;;;;;4909217;29;20066;-92
2023/06/02 06:44:42;;;;;;;27.35;6.43;;;12.30;74.80;;;;;;4925377;28;20054;-93
2023/06/02 06:47:42;;;;;;;26.58;5.68;;;12.50;74.70;;;;;;4988357;28;20107;-95
2023/06/02 06:50:12;;;;;;;36.20;6.43;;;12.50;74.70;;;;;;4995770;28;20050;-92
2023/06/02 06:53:17;;;;;;;28.42;5.93;;;12.60;74.60;;;;;;4983024;28;20060;-93
2023/06/02 06:59:51;;;;;;;27.73;5.70;;;12.80;74.60;;;;;;5008745;28;20053;-91
2023/06/02 07:03:17;;;;;;;23.67;5.47;;;13.10;74.40;;;;;;5006050;28;20186;-93
2023/06/02 10:25:17;;;;;;;5.65;1.02;;;16.60;58.80;;;;;;5175529;24;20453;-96
2023/06/02 11:09:42;;;;;;;6.15;1.77;;;16.40;61.50;;;;;;4856155;29;20139;-95
2023/06/02 11:20:55;;;;;;;8.47;1.87;;;16.50;62.30;;;;;;4811165;29;20707;-96
2023/06/02 11:24:31;;;;;;;8.15;2.22;;;16.40;62.80;;;;;;4741743;30;20063;-95
2023/06/02 11:45:47;;;;;;;7.53;2.28;;;16.80;64.50;;;;;;4734656;30;20053;-96
2023/06/02 11:48:38;;;;;;;;;;;;;;;;;;;;;
2023/06/02 11:51:19;;;;;;;11.60;2.40;;;16.80;64.30;;;;;;4776601;29;20070;-95
2023/06/02 12:03:07;;;;;;;;;;;;;;;;;;;;;
2023/06/02 12:10:48;;;;;;;8.98;3.05;;;17.00;65.50;;;;;;4850559;29;21516;-96
2023/06/02 12:17:36;;;;;;;10.38;3.13;;;17.20;65.30;;;;;;4840368;29;20084;-94
2023/06/02 12:51:25;;;;;;;9.27;3.08;;;17.20;66.10;;;;;;4781160;29;20088;-96
2023/06/02 12:58:22;;;;;;;9.18;3.42;;;17.10;65.80;;;;;;4763635;29;20078;-94
2023/06/02 13:12:22;;;;;;;10.10;3.15;;;17.50;66.00;;;;;;4728375;30;20066;-93
2023/06/02 13:25:56;;;;;;;7.95;3.22;;;17.50;65.60;;;;;;4729329;30;20133;-96
2023/06/02 13:29:14;;;;;;;8.35;3.05;;;17.50;65.80;;;;;;4728825;30;20067;-96
2023/06/02 13:32:22;;;;;;;12.82;3.50;;;17.50;65.80;;;;;;4698817;30;20100;-95
2023/06/02 13:35:01;;;;;;;10.10;3.58;;;17.50;66.20;;;;;;4704633;30;20176;-92
2023/06/02 13:50:59;;;;;;;5.97;3.17;;;17.50;65.80;;;;;;4748176;30;20538;-95
2023/06/02 14:01:10;;;;;;;;;;;17.50;66.10;;;;;;4739735;30;21184;-96
2023/06/02 14:04:31;;;;;;;11.50;4.07;;;17.50;65.00;;;;;;4723233;30;19934;-95
2023/06/02 14:31:18;;;;;;;9.50;3.33;;;17.50;65.80;;;;;;6358619;21;20341;-95
2023/06/02 14:38:17;;;;;;;7.97;3.22;;;17.70;64.30;;;;;;6266688;22;20022;-95
2023/06/02 14:51:56;;;;;;;9.50;3.13;;;17.80;64.50;;;;;;6174199;23;20071;-94
2023/06/02 15:16:34;;;;;;;12.57;2.83;;;18.10;63.70;;;;;;6104344;23;20029;-95
2023/06/02 15:19:21;;;;;;;6.72;2.83;;;18.10;63.30;;;;;;5954694;24;20137;-96
2023/06/02 15:23:03;;;;;;;7.13;3.08;;;18.20;62.90;;;;;;5989775;24;20049;-96
2023/06/02 15:25:39;;;;;;;;;;;;;;;;;;;;;
2023/06/02 15:43:56;;;;;;;;;;;;;;;;;;;;;
2023/06/02 15:50:56;;;;;;;;;;;;;;;;;;;;;
2023/06/02 15:57:12;;;;;;;8.02;2.50;;;18.30;63.20;;;;;;5896230;24;20010;-96
2023/06/02 16:00:10;;;;;;;8.70;2.35;;;18.20;63.10;;;;;;5853855;24;20074;-96
2023/06/02 16:02:53;;;;;;;7.30;2.35;;;18.20;63.50;;;;;;5856590;24;20037;-95
2023/06/02 16:06:29;;;;;;;5.05;2.55;;;18.30;63.20;;;;;;5852873;24;20033;-94
2023/06/02 16:09:52;;;;;;;9.27;2.40;;;18.30;62.80;;;;;;5844308;24;20027;-95
2023/06/02 16:12:25;;;;;;;5.05;1.85;;;18.10;62.70;;;;;;5845798;24;20029;-94
2023/06/02 16:15:09;;;;;;;7.00;2.15;;;18.00;62.90;;;;;;5910228;24;20464;-93
2023/06/02 16:18:28;;;;;;;5.07;1.98;;;17.90;62.80;;;;;;5930313;24;20020;-95
2023/06/02 16:21:21;;;;;;;5.20;2.35;;;17.80;63.30;;;;;;5987993;23;20052;-95
2023/06/02 16:23:47;;;;;;;5.60;1.83;;;17.80;63.40;;;;;;5943491;23;20054;-96
2023/06/02 16:26:49;;;;;;;5.32;2.08;;;17.80;63.40;;;;;;5941160;23;20020;-96
2023/06/02 16:29:49;;;;;;;;;;;17.80;63.30;;;;;;5921830;24;20088;-96
2023/06/02 16:32:26;;;;;;;9.48;2.33;;;17.80;63.20;;;;;;5875909;24;19920;-92
2023/06/02 16:35:40;;;;;;;6.03;2.08;;;17.80;63.30;;;;;;5871897;24;20032;-95
2023/06/02 16:42:17;;;;;;;5.95;2.10;;;17.80;63.60;;;;;;5921305;24;20040;-94
2023/06/02 16:44:53;;;;;;;6.72;2.22;;;17.80;63.30;;;;;;5921171;23;20032;-95
2023/06/02 16:47:46;;;;;;;6.88;2.00;;;17.60;63.30;;;;;;6010036;23;20023;-95
2023/06/02 16:50:15;;;;;;;5.63;2.03;;;17.50;63.50;;;;;;5977871;23;20370;-94
2023/06/02 16:52:41;;;;;;;6.07;1.88;;;17.50;63.60;;;;;;6022995;23;20033;-92
2023/06/02 16:55:15;;;;;;;8.65;1.98;;;17.40;63.90;;;;;;6074441;23;20020;-94
2023/06/02 16:58:15;;;;;;;6.45;1.98;;;17.40;64.00;;;;;;6110666;23;20028;-95
2023/06/02 17:00:47;;;;;;;8.68;2.03;;;17.40;64.40;;;;;;6102530;23;20017;-95
2023/06/02 17:04:14;;;;;;;7.68;2.10;;;17.40;64.60;;;;;;6088151;23;20457;-95
2023/06/02 17:06:52;;;;;;;5.05;1.88;;;17.30;64.90;;;;;;5972839;23;20066;-93
2023/06/02 17:09:41;;;;;;;7.82;2.00;;;17.20;64.70;;;;;;6064158;23;20170;-95
2023/06/02 17:12:10;;;;;;;6.93;2.00;;;17.20;64.70;;;;;;6013069;23;20031;-94
2023/06/02 17:15:06;;;;;;;9.63;2.17;;;17.10;64.60;;;;;;6018644;23;20087;-92
2023/06/02 17:17:32;;;;;;;6.95;1.88;;;17.00;64.70;;;;;;5998254;23;20023;-92
2023/06/02 17:20:42;;;;;;;4.82;1.90;;;16.90;64.70;;;;;;6065810;23;20024;-95
2023/06/02 17:23:08;;;;;;;6.40;1.97;;;16.80;65.00;;;;;;6017938;23;20026;-94
2023/06/02 17:25:44;;;;;;;4.82;1.80;;;16.80;65.00;;;;;;6041235;23;20026;-93
2023/06/02 17:31:58;;;;;;;8.73;2.03;;;16.70;65.10;;;;;;6073103;23;20026;-95
2023/06/02 17:34:43;;;;;;;;;;;;;;;;;;;;;
2023/06/02 17:37:12;;;;;;;10.20;1.92;;;16.50;65.10;;;;;;6148709;23;20020;-93
2023/06/02 17:40:32;;;;;;;8.27;1.70;;;16.50;65.10;;;;;;6104294;23;20023;-94
2023/06/02 17:43:05;;;;;;;5.35;2.20;;;16.50;65.20;;;;;;6103698;23;20525;-94
2023/06/02 17:46:01;;;;;;;7.45;2.00;;;16.40;65.20;;;;;;6103870;23;20083;-96
2023/06/02 17:48:38;;;;;;;10.05;2.20;;;16.30;65.30;;;;;;6132905;23;20422;-96
2023/06/02 17:51:12;;;;;;;4.68;1.70;;;16.30;65.40;;;;;;6154236;23;20021;-96
2023/06/02 17:54:47;;;;;;;6.78;1.88;;;16.30;65.60;;;;;;6151683;23;20203;-94
2023/06/02 18:00:51;;;;;;;4.47;1.90;;;16.20;65.50;;;;;;6141189;23;20033;-93
2023/06/02 18:04:10;;;;;;;5.35;1.60;;;16.10;65.30;;;;;;6095782;23;20381;-95
2023/06/02 18:07:08;;;;;;;6.32;1.50;;;16.00;65.00;;;;;;5976293;23;20492;-93
2023/06/02 18:09:36;;;;;;;6.57;1.83;;;16.00;65.00;;;;;;6041236;23;20041;-96
2023/06/02 18:12:11;;;;;;;;;;;15.90;65.20;;;;;;6055055;23;20017;-92
2023/06/02 18:15:38;;;;;;;6.80;1.67;;;15.80;65.20;;;;;;6053396;23;19917;-96
2023/06/02 18:22:19;;;;;;;8.65;2.10;;;15.80;65.30;;;;;;5982106;23;20092;-93
2023/06/02 18:25:25;;;;;;;7.95;1.77;;;15.60;65.40;;;;;;6055838;23;20041;-95
2023/06/02 18:28:30;;;;;;;;;;;;;;;;;;;;;
2023/06/02 18:31:22;;;;;;;8.10;1.60;;;15.60;65.50;;;;;;6072571;23;20070;-93
2023/06/02 18:35:08;;;;;;;8.27;1.73;;;15.50;65.60;;;;;;5999704;23;20027;-94
2023/06/02 18:37:48;;;;;;;6.70;1.85;;;15.50;65.90;;;;;;6191802;23;20043;-94
2023/06/02 18:40:14;;;;;;;5.50;1.60;;;15.50;65.90;;;;;;6190467;23;20016;-93
2023/06/02 18:47:10;;;;;;;;;;;;;;;;;;;;;
2023/06/02 18:54:16;;;;;;;13.30;3.70;;;15.20;67.00;;;;;;6150666;23;20089;-96
2023/06/02 18:57:01;;;;;;;;;;;;;;;;;;;;;
2023/06/02 19:03:42;;;;;;;5.38;2.00;;;14.90;67.50;;;;;;6041033;23;20014;-94
2023/06/02 19:07:07;;;;;;;6.80;1.90;;;14.80;68.10;;;;;;5820858;24;20029;-95
2023/06/02 19:10:28;;;;;;;9.48;2.15;;;14.70;68.20;;;;;;5814347;24;20023;-93
2023/06/02 21:10:07;;;;;;;7.03;2.47;;;12.70;70.30;;;;;;6259678;22;20028;-91
2023/06/02 21:12:36;;;;;;;6.72;2.22;;;12.60;70.20;;;;;;6248190;22;20098;-90
2023/06/02 21:15:03;;;;;;;6.15;1.67;;;12.50;70.10;;;;;;6250347;22;20141;-90
2023/06/02 21:17:29;;;;;;;4.63;2.10;;;12.50;70.10;;;;;;6257898;22;20008;-91
2023/06/02 21:19:54;;;;;;;11.90;2.30;;;12.50;70.10;;;;;;6227429;22;20568;-91
2023/06/02 21:22:20;;;;;;;4.75;2.25;;;12.50;70.10;;;;;;6250670;22;20019;-90
2023/06/02 21:24:52;;;;;;;3.58;1.75;;;12.50;70.00;;;;;;6253427;22;20019;-90
2023/06/02 21:27:18;;;;;;;8.52;2.35;;;12.40;70.00;;;;;;6218593;22;20020;-90
2023/06/02 21:29:44;;;;;;;8.65;2.40;;;12.40;70.00;;;;;;6228418;22;20502;-90
2023/06/02 21:32:12;;;;;;;7.30;2.00;;;12.30;70.00;;;;;;6250697;22;20026;-89
2023/06/02 21:34:38;;;;;;;3.78;1.90;;;12.20;70.00;;;;;;6227910;22;20019;-91
2023/06/02 21:37:09;;;;;;;7.80;2.22;;;12.20;70.00;;;;;;6246952;22;20621;-91
2023/06/02 21:39:35;;;;;;;6.05;2.28;;;12.10;70.00;;;;;;6252391;22;20011;-90
2023/06/02 21:42:04;;;;;;;8.23;2.35;;;12.10;70.00;;;;;;6224373;22;20026;-91
2023/06/02 21:44:29;;;;;;;11.43;2.45;;;12.10;69.90;;;;;;6222904;22;20675;-90
2023/06/02 21:46:55;;;;;;;5.90;2.03;;;12.00;69.90;;;;;;6241555;22;20038;-91
2023/06/02 21:49:21;;;;;;;11.73;1.98;;;12.00;69.90;;;;;;6223059;22;20595;-92
2023/06/02 21:51:47;;;;;;;7.35;1.83;;;11.90;69.80;;;;;;6200208;22;20400;-91
2023/06/02 21:54:13;;;;;;;6.80;1.50;;;11.90;69.80;;;;;;6248269;22;20019;-90
2023/06/02 21:56:39;;;;;;;8.93;1.90;;;11.90;69.80;;;;;;6219271;22;20469;-90
2023/06/02 21:59:05;;;;;;;4.50;2.03;;;11.80;69.70;;;;;;6249673;22;20026;-91
2023/06/02 22:01:33;;;;;;;7.20;1.67;;;11.70;69.70;;;;;;6227222;22;20334;-90
2023/06/02 22:04:04;;;;;;;4.85;1.98;;;11.70;69.70;;;;;;6224442;22;20370;-91
2023/06/02 22:06:29;;;;;;;4.13;1.70;;;11.70;69.70;;;;;;6223970;22;20076;-92
2023/06/02 22:08:58;;;;;;;7.13;2.10;;;11.60;69.70;;;;;;6248220;22;20019;-90
2023/06/02 22:11:26;;;;;;;5.80;1.98;;;11.60;69.60;;;;;;6252779;22;20059;-90
2023/06/02 22:13:55;;;;;;;4.63;1.95;;;11.50;69.60;;;;;;6251357;22;20038;-91
2023/06/02 22:16:24;;;;;;;4.05;2.08;;;11.50;69.60;;;;;;6247086;22;20019;-91
2023/06/02 22:18:49;;;;;;;5.88;1.65;;;11.50;69.70;;;;;;6257635;22;20089;-90
2023/06/02 22:21:18;;;;;;;4.72;2.15;;;11.40;69.70;;;;;;6252880;22;20465;-90
2023/06/02 22:23:44;;;;;;;6.00;1.90;;;11.30;69.70;;;;;;6250870;22;20030;-90
2023/06/02 22:26:13;;;;;;;5.45;2.13;;;11.30;69.80;;;;;;6251470;22;20349;-92
2023/06/02 22:28:42;;;;;;;6.95;1.92;;;11.20;69.90;;;;;;6245883;22;20030;-90
2023/06/02 22:31:08;;;;;;;6.45;2.17;;;11.20;69.90;;;;;;6253271;22;20015;-91
2023/06/02 22:33:44;;;;;;;7.40;2.25;;;11.10;69.90;;;;;;6251124;22;20077;-91
2023/06/02 22:36:10;;;;;;;4.85;2.10;;;11.10;69.90;;;;;;6226604;22;20027;-92
2023/06/02 22:38:36;;;;;;;6.13;2.15;;;11.10;70.00;;;;;;6221226;22;20438;-90
2023/06/02 22:41:02;;;;;;;7.97;2.22;;;11.00;70.10;;;;;;6254375;22;20158;-90
2023/06/02 22:43:27;;;;;;;8.43;2.08;;;11.00;70.20;;;;;;6216157;22;20061;-90
2023/06/02 22:45:53;;;;;;;4.65;2.30;;;10.90;70.20;;;;;;6233633;22;20098;-90
2023/06/02 22:48:30;;;;;;;4.00;2.13;;;10.90;70.10;;;;;;6224241;22;20015;-92
2023/06/02 22:50:55;;;;;;;6.13;2.23;;;10.90;70.10;;;;;;6258274;22;20069;-91
2023/06/02 22:53:21;;;;;;;6.33;2.23;;;10.80;70.10;;;;;;6230193;22;20365;-90
2023/06/02 22:55:47;;;;;;;6.37;1.90;;;10.80;70.20;;;;;;6255783;22;20058;-90
2023/06/02 22:58:13;;;;;;;5.22;2.13;;;10.80;70.30;;;;;;6246041;22;20083;-91
2023/06/02 23:00:39;;;;;;;6.90;2.20;;;10.70;70.30;;;;;;6229791;22;20102;-90
2023/06/02 23:03:04;;;;;;;5.80;2.10;;;10.60;70.40;;;;;;6227612;22;20019;-90
2023/06/02 23:05:30;;;;;;;5.93;2.60;;;10.60;70.50;;;;;;6229392;22;20434;-90
2023/06/02 23:07:56;;;;;;;4.55;2.05;;;10.50;70.60;;;;;;6204432;22;20023;-90
2023/06/02 23:10:22;;;;;;;3.60;1.97;;;10.50;70.70;;;;;;6228915;22;20072;-89
2023/06/02 23:12:50;;;;;;;3.47;2.20;;;10.50;70.70;;;;;;6252840;22;20019;-90
2023/06/02 23:15:20;;;;;;;5.70;2.07;;;10.40;70.70;;;;;;6254167;22;20011;-89
2023/06/02 23:17:46;;;;;;;6.07;2.33;;;10.40;70.80;;;;;;6271174;22;20038;-90
2023/06/02 23:20:16;;;;;;;6.88;2.10;;;10.30;70.90;;;;;;6229915;22;20022;-91
2023/06/02 23:22:45;;;;;;;8.17;2.47;;;10.30;70.90;;;;;;6253418;22;20050;-90
2023/06/02 23:25:11;;;;;;;5.43;2.20;;;10.30;71.00;;;;;;6254479;22;20026;-90
2023/06/02 23:27:37;;;;;;;8.13;2.43;;;10.20;71.00;;;;;;6245599;22;20019;-90
2023/06/02 23:30:06;;;;;;;7.60;2.63;;;10.20;71.00;;;;;;6253514;22;20094;-90
2023/06/02 23:32:35;;;;;;;4.80;2.40;;;10.20;71.00;;;;;;6227921;22;20507;-90
2023/06/02 23:35:04;;;;;;;5.63;2.50;;;10.20;71.00;;;;;;6229154;22;20022;-91
2023/06/02 23:37:30;;;;;;;6.37;2.30;;;10.20;70.90;;;;;;6247601;22;20093;-90
2023/06/02 23:39:59;;;;;;;5.13;2.00;;;10.20;70.90;;;;;;6253522;22;20023;-91
2023/06/02 23:42:31;;;;;;;5.77;2.20;;;10.10;70.80;;;;;;6248813;22;20468;-90
2023/06/02 23:44:57;;;;;;;5.90;1.77;;;10.10;70.60;;;;;;6230369;22;20157;-90
2023/06/02 23:47:23;;;;;;;6.33;2.00;;;10.10;70.30;;;;;;6221145;22;20030;-90
2023/06/02 23:49:51;;;;;;;4.27;1.43;;;10.10;69.90;;;;;;6254243;22;20019;-90
2023/06/02 23:52:21;;;;;;;5.22;1.55;;;10.10;69.50;;;;;;6251199;22;20446;-90
2023/06/02 23:54:47;;;;;;;3.97;1.53;;;10.10;69.10;;;;;;6254245;22;20019;-91
2023/06/02 23:57:14;;;;;;;5.60;1.60;;;10.10;68.60;;;;;;6271418;22;20061;-90
2023/06/02 23:59:43;;;;;;;4.40;1.20;;;10.10;68.20;;;;;;6253999;22;20018;-90
